createdAt,value
2023-03-06T00:01:11.329Z,5.60
2023-03-06T00:03:39.826Z,4.77
2023-03-06T00:06:08.907Z,5.63
2023-03-06T00:08:37.483Z,5.30
2023-03-06T00:11:06.331Z,5.27
2023-03-06T00:13:35.176Z,4.70
2023-03-06T00:16:03.710Z,5.00
2023-03-06T00:18:32.177Z,5.10
2023-03-06T00:21:00.712Z,4.90
2023-03-06T00:23:29.408Z,5.40
2023-03-06T00:25:58.039Z,5.30
2023-03-06T00:28:26.591Z,5.47
2023-03-06T00:30:55.108Z,5.83
2023-03-06T00:33:23.630Z,5.47
2023-03-06T00:35:52.102Z,6.17
2023-03-06T00:38:20.682Z,6.10
2023-03-06T00:40:49.293Z,5.70
2023-03-06T00:43:17.891Z,6.30
2023-03-06T00:45:46.455Z,5.40
2023-03-06T00:48:15.005Z,6.07
2023-03-06T00:50:43.465Z,6.23
2023-03-06T00:53:13.311Z,6.03
2023-03-06T00:55:44.783Z,6.80
2023-03-06T00:58:13.535Z,6.10
2023-03-06T01:00:42.007Z,6.70
2023-03-06T01:03:10.529Z,6.67
2023-03-06T01:05:39.468Z,6.20
2023-03-06T01:08:08.812Z,6.40
2023-03-06T01:10:41.191Z,6.90
2023-03-06T01:13:09.734Z,7.33
2023-03-06T01:15:38.210Z,6.77
2023-03-06T01:18:06.881Z,6.87
2023-03-06T01:20:35.345Z,6.87
2023-03-06T01:23:03.836Z,7.43
2023-03-06T01:25:32.428Z,6.27
2023-03-06T01:28:01.023Z,6.87
2023-03-06T01:30:29.606Z,6.60
2023-03-06T01:32:58.094Z,6.53
2023-03-06T01:35:26.566Z,7.13
2023-03-06T01:37:55.075Z,6.63
2023-03-06T01:40:23.603Z,7.37
2023-03-06T01:42:52.317Z,6.33
2023-03-06T01:45:20.779Z,7.60
2023-03-06T01:47:49.344Z,6.30
2023-03-06T01:50:18.042Z,6.70
2023-03-06T01:53:00.752Z,6.77
2023-03-06T01:55:35.243Z,6.47
2023-03-06T01:58:11.255Z,7.13
2023-03-06T02:00:39.970Z,6.57
2023-03-06T02:03:23.172Z,6.27
2023-03-06T02:05:51.873Z,7.50
2023-03-06T02:08:23.709Z,6.70
2023-03-06T02:11:09.837Z,6.83
2023-03-06T02:13:39.610Z,6.73
2023-03-06T02:16:09.832Z,5.90
2023-03-06T02:18:38.754Z,6.63
2023-03-06T02:21:15.116Z,6.57
2023-03-06T02:24:13.329Z,6.17
2023-03-06T02:26:44.549Z,6.20
2023-03-06T02:29:13.250Z,6.33
2023-03-06T02:31:41.715Z,6.50
2023-03-06T02:34:30.465Z,6.40
2023-03-06T02:37:10.288Z,6.43
2023-03-06T02:39:44.030Z,6.60
2023-03-06T02:42:17.695Z,6.00
2023-03-06T02:44:46.170Z,6.00
2023-03-06T02:47:14.728Z,6.50
2023-03-06T02:49:43.218Z,5.87
2023-03-06T02:52:12.020Z,6.27
2023-03-06T02:54:40.475Z,6.80
2023-03-06T02:57:09.138Z,6.17
2023-03-06T02:59:37.685Z,6.67
2023-03-06T03:02:06.455Z,7.37
2023-03-06T03:04:35.347Z,6.60
2023-03-06T03:07:03.856Z,6.70
2023-03-06T03:09:36.928Z,6.77
2023-03-06T03:12:08.213Z,7.07
2023-03-06T03:14:36.769Z,7.03
2023-03-06T03:17:05.629Z,7.43
2023-03-06T03:19:34.392Z,7.50
2023-03-06T03:22:02.960Z,7.90
2023-03-06T03:24:31.530Z,7.20
2023-03-06T03:27:00.225Z,7.10
2023-03-06T03:29:29.039Z,7.27
2023-03-06T03:31:57.487Z,7.30
2023-03-06T03:34:26.090Z,8.20
2023-03-06T03:36:54.505Z,7.93
2023-03-06T03:39:22.976Z,7.47
2023-03-06T03:41:51.703Z,7.70
2023-03-06T03:44:20.270Z,8.10
2023-03-06T03:46:48.735Z,8.97
2023-03-06T03:49:17.284Z,8.23
2023-03-06T03:51:46.040Z,8.90
2023-03-06T03:54:14.584Z,8.90
2023-03-06T03:56:44.606Z,8.77
2023-03-06T03:59:13.243Z,8.90
2023-03-06T04:01:41.884Z,9.07
2023-03-06T04:04:10.471Z,8.97
2023-03-06T04:06:39.025Z,8.33
2023-03-06T04:09:07.714Z,8.90
2023-03-06T04:11:36.210Z,9.20
2023-03-06T04:14:05.512Z,8.40
2023-03-06T04:16:33.988Z,8.50
2023-03-06T04:19:02.583Z,8.97
2023-03-06T04:21:31.050Z,8.37
2023-03-06T04:24:00.050Z,9.37
2023-03-06T04:26:28.581Z,8.53
2023-03-06T04:28:58.575Z,8.60
2023-03-06T04:31:27.349Z,8.30
2023-03-06T04:33:55.870Z,8.87
2023-03-06T04:36:33.982Z,8.50
2023-03-06T04:39:03.333Z,8.23
2023-03-06T04:41:31.806Z,9.00
2023-03-06T04:44:00.486Z,8.87
2023-03-06T04:46:29.044Z,8.70
2023-03-06T04:48:57.471Z,9.77
2023-03-06T04:51:26.135Z,8.80
2023-03-06T04:53:54.618Z,8.63
2023-03-06T04:56:23.335Z,8.50
2023-03-06T04:58:51.809Z,9.10
2023-03-06T05:01:20.366Z,8.70
2023-03-06T05:03:49.731Z,8.10
2023-03-06T05:06:18.230Z,8.90
2023-03-06T05:08:46.673Z,9.07
2023-03-06T05:11:15.239Z,11.60
2023-03-06T05:13:43.713Z,9.60
2023-03-06T05:16:12.296Z,9.10
2023-03-06T05:18:41.018Z,8.17
2023-03-06T05:21:09.755Z,9.57
2023-03-06T05:23:39.604Z,9.00
2023-03-06T05:26:13.416Z,9.00
2023-03-06T05:28:42.652Z,10.10
2023-03-06T05:31:11.244Z,8.70
2023-03-06T05:33:39.715Z,9.20
2023-03-06T05:36:10.426Z,9.43
2023-03-06T05:38:38.913Z,8.90
2023-03-06T05:41:07.470Z,8.77
2023-03-06T05:43:35.853Z,9.30
2023-03-06T05:46:08.412Z,9.57
2023-03-06T05:48:37.547Z,9.43
2023-03-06T05:51:06.833Z,8.53
2023-03-06T05:53:35.376Z,8.80
2023-03-06T05:56:10.119Z,9.50
2023-03-06T05:58:39.156Z,9.83
2023-03-06T06:01:17.011Z,9.53
2023-03-06T06:03:45.829Z,8.73
2023-03-06T06:06:16.028Z,8.20
2023-03-06T06:08:44.863Z,9.57
2023-03-06T06:11:14.166Z,9.90
2023-03-06T06:13:43.077Z,9.70
2023-03-06T06:16:16.462Z,9.10
2023-03-06T06:18:45.212Z,9.80
2023-03-06T06:21:15.853Z,9.37
2023-03-06T06:23:44.453Z,9.63
2023-03-06T06:26:13.003Z,8.80
2023-03-06T06:28:41.513Z,9.47
2023-03-06T06:31:12.319Z,8.93
2023-03-06T06:33:42.188Z,9.47
2023-03-06T06:36:21.375Z,8.97
2023-03-06T06:38:50.636Z,9.37
2023-03-06T06:41:51.714Z,9.57
2023-03-06T06:44:11.292Z,8.67
2023-03-06T06:49:28.292Z,8.93
2023-03-06T06:51:56.798Z,8.70
2023-03-06T06:54:25.267Z,8.60
2023-03-06T06:56:53.813Z,8.77
2023-03-06T06:59:23.722Z,9.33
2023-03-06T07:01:53.403Z,8.97
2023-03-06T07:04:22.021Z,9.20
2023-03-06T07:06:50.578Z,9.63
2023-03-06T07:09:20.107Z,9.63
2023-03-06T07:11:48.686Z,9.70
2023-03-06T07:14:17.125Z,9.23
2023-03-06T07:16:45.623Z,10.33
2023-03-06T07:19:14.179Z,9.47
2023-03-06T07:21:42.778Z,9.37
2023-03-06T07:24:11.305Z,9.43
2023-03-06T07:26:40.715Z,10.37
2023-03-06T07:29:09.167Z,10.33
2023-03-06T07:31:37.846Z,10.83
2023-03-06T07:34:06.490Z,10.23
2023-03-06T07:36:35.286Z,9.43
2023-03-06T07:39:03.809Z,9.27
2023-03-06T07:41:32.221Z,10.17
2023-03-06T07:44:00.694Z,10.00
2023-03-06T07:46:29.402Z,10.77
2023-03-06T07:48:58.289Z,10.23
2023-03-06T07:51:26.824Z,10.13
2023-03-06T07:53:55.273Z,10.10
2023-03-06T07:56:23.681Z,10.90
2023-03-06T07:58:52.121Z,10.03
2023-03-06T08:01:23.609Z,11.27
2023-03-06T08:03:52.667Z,11.10
2023-03-06T08:06:26.905Z,10.77
2023-03-06T08:08:56.545Z,11.10
2023-03-06T08:11:28.257Z,10.93
2023-03-06T08:13:58.209Z,11.07
2023-03-06T08:16:30.064Z,11.70
2023-03-06T08:18:58.850Z,11.10
2023-03-06T08:21:29.524Z,11.30
2023-03-06T08:23:58.396Z,10.40
2023-03-06T08:26:31.063Z,11.17
2023-03-06T08:29:03.017Z,11.70
2023-03-06T08:31:41.158Z,10.70
2023-03-06T08:34:14.380Z,11.47
2023-03-06T08:36:42.851Z,11.03
2023-03-06T08:39:11.322Z,11.27
2023-03-06T08:41:40.038Z,11.20
2023-03-06T08:44:08.678Z,11.53
2023-03-06T08:46:37.316Z,10.23
2023-03-06T08:49:06.367Z,11.00
2023-03-06T08:51:34.858Z,11.00
2023-03-06T08:54:03.302Z,11.33
2023-03-06T08:56:35.119Z,10.90
2023-03-06T08:59:05.558Z,10.93
2023-03-06T09:01:37.752Z,11.93
2023-03-06T09:04:09.919Z,12.27
2023-03-06T09:06:43.232Z,11.20
2023-03-06T09:09:12.500Z,11.60
2023-03-06T09:11:41.198Z,11.37
2023-03-06T09:14:09.781Z,11.73
2023-03-06T09:16:38.336Z,12.30
2023-03-06T09:19:07.118Z,11.93
2023-03-06T09:21:35.585Z,13.10
2023-03-06T09:24:04.150Z,11.20
2023-03-06T09:26:45.026Z,11.70
2023-03-06T09:29:16.421Z,10.93
2023-03-06T09:31:45.388Z,11.90
2023-03-06T09:34:13.888Z,11.23
2023-03-06T09:36:55.861Z,11.73
2023-03-06T09:39:26.290Z,10.80
2023-03-06T09:41:55.243Z,11.37
2023-03-06T09:44:33.581Z,12.40
2023-03-06T09:47:42.680Z,11.10
2023-03-06T09:50:30.426Z,10.97
2023-03-06T09:53:42.006Z,11.43
2023-03-06T09:56:31.870Z,11.10
2023-03-06T09:59:28.624Z,11.33
2023-03-06T10:02:31.980Z,11.90
2023-03-06T10:05:06.702Z,11.57
2023-03-06T10:08:20.931Z,12.37
2023-03-06T10:11:11.480Z,13.43
2023-03-06T10:13:48.200Z,14.23
2023-03-06T10:16:29.284Z,13.77
2023-03-06T10:19:05.046Z,14.53
2023-03-06T10:21:44.551Z,13.43
2023-03-06T10:24:36.714Z,14.47
2023-03-06T10:27:46.481Z,16.20
2023-03-06T10:30:41.483Z,15.13
2023-03-06T10:33:31.565Z,15.33
2023-03-06T10:36:00.252Z,15.40
2023-03-06T10:38:31.295Z,16.40
2023-03-06T10:41:14.210Z,16.23
2023-03-06T10:43:47.289Z,16.53
2023-03-06T10:46:43.001Z,16.67
2023-03-06T10:49:26.807Z,17.43
2023-03-06T10:51:59.134Z,17.03
2023-03-06T10:54:28.809Z,16.90
2023-03-06T10:56:57.284Z,17.20
2023-03-06T10:59:29.431Z,17.17
2023-03-06T11:02:00.187Z,16.47
2023-03-06T11:04:33.881Z,15.83
2023-03-06T11:07:19.058Z,15.90
2023-03-06T11:09:59.168Z,14.77
2023-03-06T11:12:44.163Z,15.27
2023-03-06T11:15:17.339Z,15.90
2023-03-06T11:17:51.309Z,16.17
2023-03-06T11:20:52.788Z,16.77
2023-03-06T11:23:38.163Z,16.40
2023-03-06T11:26:18.102Z,15.87
2023-03-06T11:29:14.520Z,15.53
2023-03-06T11:32:30.845Z,15.80
2023-03-06T11:35:03.239Z,14.97
2023-03-06T11:37:38.722Z,15.07
2023-03-06T11:40:12.793Z,16.17
2023-03-06T11:42:57.563Z,17.17
2023-03-06T11:45:38.740Z,15.83
2023-03-06T11:48:15.914Z,15.73
2023-03-06T11:50:58.627Z,16.27
2023-03-06T11:53:36.434Z,15.03
2023-03-06T11:56:31.995Z,14.73
2023-03-06T11:59:03.158Z,14.67
2023-03-06T12:01:39.851Z,15.67
2023-03-06T12:05:08.071Z,13.70
2023-03-06T12:07:52.565Z,15.23
2023-03-06T12:10:32.604Z,14.23
2023-03-06T12:13:06.467Z,13.50
2023-03-06T12:16:13.851Z,12.27
2023-03-06T12:19:12.900Z,11.50
2023-03-06T12:22:09.179Z,12.40
2023-03-06T12:25:07.838Z,12.87
2023-03-06T12:28:17.202Z,12.27
2023-03-06T12:31:19.840Z,14.13
2023-03-06T12:34:48.366Z,11.83
2023-03-06T12:37:42.210Z,11.50
2023-03-06T12:41:03.782Z,9.93
2023-03-06T12:43:40.338Z,10.70
2023-03-06T12:46:17.957Z,9.37
2023-03-06T12:49:06.407Z,9.10
2023-03-06T12:51:35.423Z,7.67
2023-03-06T12:54:04.851Z,7.30
2023-03-06T12:56:34.724Z,6.53
2023-03-06T12:59:03.561Z,6.43
2023-03-06T13:02:23.084Z,6.23
2023-03-06T13:05:22.689Z,6.70
2023-03-06T13:08:28.273Z,7.43
2023-03-06T13:11:32.135Z,6.93
2023-03-06T13:14:00.529Z,7.83
2023-03-06T13:16:34.900Z,7.50
2023-03-06T13:19:22.168Z,7.80
2023-03-06T13:21:56.127Z,8.00
2023-03-06T13:24:34.390Z,7.90
2023-03-06T13:27:11.860Z,8.33
2023-03-06T13:29:40.249Z,9.47
2023-03-06T13:32:14.527Z,10.03
2023-03-06T13:34:49.171Z,10.13
2023-03-06T13:37:21.054Z,9.53
2023-03-06T13:39:58.438Z,11.27
2023-03-06T13:42:36.117Z,9.50
2023-03-06T13:45:15.392Z,11.17
2023-03-06T13:48:22.532Z,12.10
2023-03-06T13:50:52.841Z,10.53
2023-03-06T13:53:56.331Z,11.23
2023-03-06T13:56:53.298Z,10.43
2023-03-06T14:00:08.767Z,10.23
2023-03-06T14:02:58.833Z,10.47
2023-03-06T14:05:51.399Z,11.70
2023-03-06T14:08:30.178Z,11.53
2023-03-06T14:11:18.704Z,11.20
2023-03-06T14:13:58.909Z,11.17
2023-03-06T14:16:49.273Z,10.33
2023-03-06T14:19:20.040Z,11.37
2023-03-06T14:21:57.729Z,10.07
2023-03-06T14:24:43.023Z,10.40
2023-03-06T14:27:19.756Z,10.70
2023-03-06T14:29:48.840Z,10.83
2023-03-06T14:32:23.947Z,10.57
2023-03-06T14:34:52.806Z,10.00
2023-03-06T14:37:25.118Z,10.37
2023-03-06T14:39:56.106Z,10.30
2023-03-06T14:42:30.098Z,10.50
2023-03-06T14:45:16.600Z,10.33
2023-03-06T14:47:51.932Z,10.67
2023-03-06T14:50:28.829Z,10.73
2023-03-06T14:53:05.649Z,9.87
2023-03-06T14:55:36.955Z,11.00
2023-03-06T14:58:13.784Z,10.10
2023-03-06T15:00:50.640Z,10.80
2023-03-06T15:03:41.792Z,10.80
2023-03-06T15:06:34.502Z,11.10
2023-03-06T15:09:34.449Z,10.70
2023-03-06T15:12:26.605Z,11.47
2023-03-06T15:15:02.719Z,11.30
2023-03-06T15:17:47.906Z,11.63
2023-03-06T15:20:37.792Z,10.67
2023-03-06T15:23:35.561Z,12.10
2023-03-06T15:26:33.373Z,11.27
2023-03-06T15:29:10.971Z,12.07
2023-03-06T15:31:45.417Z,11.60
2023-03-06T15:34:13.804Z,11.70
2023-03-06T15:36:55.304Z,12.40
2023-03-06T15:39:40.687Z,11.90
2023-03-06T15:42:23.602Z,12.23
2023-03-06T15:44:55.063Z,11.80
2023-03-06T15:47:24.607Z,12.07
2023-03-06T15:49:53.761Z,11.53
2023-03-06T15:52:23.119Z,12.07
2023-03-06T15:54:51.615Z,9.80
2023-03-06T15:57:29.175Z,8.67
2023-03-06T15:59:59.063Z,9.03
2023-03-06T16:02:27.507Z,8.73
2023-03-06T16:04:56.245Z,8.23
2023-03-06T16:07:24.994Z,8.83
2023-03-06T16:09:54.281Z,6.77
2023-03-06T16:12:23.721Z,7.07
2023-03-06T16:14:52.232Z,7.37
2023-03-06T16:17:20.691Z,7.43
2023-03-06T16:19:49.252Z,7.90
2023-03-06T16:22:17.671Z,7.93
2023-03-06T16:24:46.128Z,8.00
2023-03-06T16:27:19.982Z,8.47
2023-03-06T16:29:48.315Z,7.17
2023-03-06T16:32:16.868Z,7.90
2023-03-06T16:34:45.245Z,7.93
2023-03-06T16:37:14.914Z,7.40
2023-03-06T16:39:43.301Z,8.33
2023-03-06T16:42:11.703Z,8.07
2023-03-06T16:44:40.155Z,8.13
2023-03-06T16:47:12.724Z,9.10
2023-03-06T16:49:41.262Z,9.00
2023-03-06T16:52:12.104Z,8.57
2023-03-06T16:54:40.532Z,8.47
2023-03-06T16:57:09.952Z,8.63
2023-03-06T16:59:38.560Z,8.30
2023-03-06T17:02:07.222Z,8.20
2023-03-06T17:04:35.628Z,8.00
2023-03-06T17:07:04.089Z,7.87
2023-03-06T17:09:32.715Z,8.23
2023-03-06T17:12:01.380Z,9.40
2023-03-06T17:14:29.867Z,8.33
2023-03-06T17:16:58.796Z,9.77
2023-03-06T17:19:27.225Z,9.13
2023-03-06T17:21:55.717Z,9.13
2023-03-06T17:24:24.082Z,9.03
2023-03-06T17:26:52.596Z,9.77
2023-03-06T17:29:21.169Z,9.20
2023-03-06T17:31:49.617Z,10.07
2023-03-06T17:34:18.043Z,8.80
2023-03-06T17:36:46.491Z,9.83
2023-03-06T17:39:16.176Z,10.27
2023-03-06T17:41:53.405Z,8.70
2023-03-06T17:44:30.217Z,8.30
2023-03-06T17:47:49.130Z,8.43
2023-03-06T18:10:43.449Z,9.73
2023-03-06T18:13:36.502Z,9.20
2023-03-06T18:16:05.666Z,8.93
2023-03-06T18:18:34.748Z,8.80
2023-03-06T18:21:12.917Z,8.73
2023-03-06T18:23:42.023Z,9.10
2023-03-06T18:26:11.894Z,9.20
2023-03-06T18:28:47.321Z,9.43
2023-03-06T18:31:25.057Z,9.03
2023-03-06T18:33:55.716Z,8.90
2023-03-06T18:36:26.571Z,9.27
2023-03-06T18:38:55.783Z,12.10
2023-03-06T18:41:24.516Z,9.70
2023-03-06T18:43:55.249Z,9.73
2023-03-06T18:46:24.365Z,8.70
2023-03-06T18:48:53.230Z,8.90
2023-03-06T18:51:21.717Z,9.70
2023-03-06T18:53:50.222Z,9.30
2023-03-06T18:56:22.933Z,9.37
2023-03-06T18:58:51.425Z,10.13
2023-03-06T19:01:20.084Z,9.90
2023-03-06T19:03:49.093Z,9.40
2023-03-06T19:06:18.800Z,9.63
2023-03-06T19:08:47.283Z,10.13
2023-03-06T19:11:18.431Z,10.23
2023-03-06T19:13:46.952Z,9.37
2023-03-06T19:16:22.149Z,9.50
2023-03-06T19:18:50.715Z,9.30
2023-03-06T19:21:23.889Z,9.00
2023-03-06T19:23:52.541Z,10.70
2023-03-06T19:26:21.049Z,11.13
2023-03-06T19:28:50.063Z,10.00
2023-03-06T19:31:24.178Z,10.90
2023-03-06T19:33:54.070Z,11.00
2023-03-06T19:36:26.822Z,11.57
2023-03-06T19:38:56.972Z,10.20
2023-03-06T19:41:25.414Z,10.33
2023-03-06T19:43:58.431Z,10.80
2023-03-06T19:46:27.721Z,10.97
2023-03-06T19:48:59.087Z,10.40
2023-03-06T19:51:28.531Z,10.33
2023-03-06T19:53:58.273Z,10.43
2023-03-06T19:56:29.063Z,10.07
2023-03-06T19:58:57.840Z,11.03
2023-03-06T20:01:28.453Z,10.97
2023-03-06T20:03:59.186Z,9.87
2023-03-06T20:06:31.159Z,10.33
2023-03-06T20:08:59.743Z,10.07
2023-03-06T20:11:30.967Z,10.47
2023-03-06T20:14:01.548Z,10.17
2023-03-06T20:16:31.429Z,9.87
2023-03-06T20:19:03.220Z,10.33
2023-03-06T20:21:37.505Z,10.60
2023-03-06T20:24:08.107Z,10.07
2023-03-06T20:26:38.099Z,10.43
2023-03-06T20:29:06.541Z,10.77
2023-03-06T20:31:35.086Z,10.87
2023-03-06T20:34:03.915Z,11.13
2023-03-06T20:36:36.116Z,12.13
2023-03-06T20:39:08.891Z,12.50
2023-03-06T20:41:37.871Z,13.60
2023-03-06T20:44:09.376Z,14.03
2023-03-06T20:46:38.262Z,13.90
2023-03-06T20:49:06.718Z,13.93
2023-03-06T20:51:39.201Z,13.20
2023-03-06T20:54:10.230Z,13.97
2023-03-06T20:56:41.167Z,14.33
2023-03-06T20:59:19.477Z,16.17
2023-03-06T21:01:48.423Z,16.13
2023-03-06T21:04:17.396Z,18.27
2023-03-06T21:06:47.419Z,19.00
2023-03-06T21:09:17.741Z,17.30
2023-03-06T21:11:46.309Z,18.30
2023-03-06T21:14:14.869Z,15.73
2023-03-06T21:16:43.971Z,15.73
2023-03-06T21:19:12.628Z,15.07
2023-03-06T21:21:41.122Z,14.00
2023-03-06T21:24:10.037Z,14.00
2023-03-06T21:26:38.581Z,15.73
2023-03-06T21:29:07.147Z,13.87
2023-03-06T21:31:35.898Z,14.23
2023-03-06T21:34:05.547Z,13.87
2023-03-06T21:36:34.391Z,12.33
2023-03-06T21:39:06.114Z,14.30
2023-03-06T21:41:34.805Z,14.27
2023-03-06T21:44:05.688Z,14.07
2023-03-06T21:46:35.248Z,14.50
2023-03-06T21:49:05.697Z,13.70
2023-03-06T21:51:34.476Z,13.87
2023-03-06T21:54:04.079Z,13.17
2023-03-06T21:56:33.511Z,14.47
2023-03-06T21:59:02.177Z,14.10
2023-03-06T22:01:30.983Z,14.20
2023-03-06T22:04:00.097Z,13.90
2023-03-06T22:06:30.790Z,14.57
2023-03-06T22:09:00.867Z,13.77
2023-03-06T22:11:36.801Z,14.03
2023-03-06T22:14:07.018Z,14.07
2023-03-06T22:16:35.619Z,14.23
2023-03-06T22:19:04.172Z,12.87
2023-03-06T22:21:32.597Z,13.90
2023-03-06T22:24:01.418Z,12.67
2023-03-06T22:26:30.791Z,13.73
2023-03-06T22:28:59.367Z,12.87
2023-03-06T22:31:29.719Z,13.60
2023-03-06T22:34:00.801Z,13.70
2023-03-06T22:36:31.349Z,14.73
2023-03-06T22:39:02.830Z,14.53
2023-03-06T22:41:31.725Z,14.83
2023-03-06T22:44:01.640Z,14.07
2023-03-06T22:46:30.583Z,15.80
2023-03-06T22:49:02.250Z,14.80
2023-03-06T22:51:31.126Z,14.30
2023-03-06T22:53:59.571Z,14.43
2023-03-06T22:56:28.579Z,14.07
2023-03-06T22:58:57.689Z,14.03
2023-03-06T23:01:29.750Z,14.37
2023-03-06T23:04:01.506Z,15.00
2023-03-06T23:06:39.688Z,14.60
2023-03-06T23:09:20.478Z,14.07
2023-03-06T23:11:50.141Z,14.17
2023-03-06T23:14:20.198Z,14.67
2023-03-06T23:16:48.704Z,13.43
2023-03-06T23:19:17.303Z,14.70
2023-03-06T23:21:45.665Z,14.27
2023-03-06T23:24:14.108Z,14.90
2023-03-06T23:26:42.496Z,15.63
2023-03-06T23:29:10.911Z,14.63
2023-03-06T23:31:39.462Z,14.87
2023-03-06T23:34:10.777Z,15.40
2023-03-06T23:36:39.215Z,13.93
2023-03-06T23:39:07.643Z,14.80
2023-03-06T23:41:36.083Z,14.70
2023-03-06T23:44:04.573Z,15.10
2023-03-06T23:46:33.070Z,15.17
2023-03-06T23:49:01.657Z,14.93
2023-03-06T23:51:30.099Z,14.07
2023-03-06T23:54:01.052Z,14.27
2023-03-06T23:56:29.898Z,13.67
2023-03-06T23:58:58.333Z,14.50
